Aviation Digital Data Service (ADDS)

Output produced by METARs form (1221 UTC 28 July 2014)
found at http://www.aviationweather.gov/adds/metars/
 
KCXY 281156Z 00000KT 9SM SCT012 SCT023 BKN035 19/18 A2959 RMK AO2 SLP020 60001 70208 T01940178 10194 20172 51013
KCXY 281056Z 00000KT 4SM BR SCT013 18/17 A2958 RMK AO2 SLP017 T01780172 $
KCXY 281034Z AUTO 29003KT 4SM BR OVC014 18/17 A2959 RMK AO2 T01780172 $
KCXY 281006Z AUTO 34003KT 5SM BR BKN015 18/17 A2958 RMK AO2 T01780172 $
KCXY 280956Z AUTO 17003KT 4SM BR SCT015 17/17 A2957 RMK AO2 SLP013 T01720167 $
KCXY 280856Z AUTO 00000KT 6SM BR FEW021 18/17 A2956 RMK AO2 SLP006 60001 T01780172 58011 $
KCXY 280809Z AUTO 24004KT 6SM BR SCT004 SCT009 18/17 A2957 RMK AO2 T01780172 $
KCXY 280756Z AUTO 24005KT 7SM BKN004 OVC008 18/17 A2957 RMK AO2 RAE11 SLP012 P0001 T01780172 $
KCXY 280719Z AUTO 22004KT 7SM OVC009 18/18 A2958 RMK AO2 RAE11 P0001 T01830178 $
KCXY 280703Z AUTO 25004KT 7SM -RA BKN010 BKN110 18/18 A2959 RMK AO2 CIG 009V015 P0000 T01830178 $
KCXY 280656Z AUTO 22004KT 8SM -RA SCT010 BKN100 BKN120 18/18 A2959 RMK AO2 RAB41 SLP018 P0000 T01830178 $
KCXY 280556Z AUTO 00000KT 8SM FEW060 18/17 A2959 RMK AO2 LTG DSNT NW SLP017 60048 T01780172 10194 20178 58030 $
KCXY 280456Z AUTO 00000KT 10SM SCT110 19/18 A2963 RMK AO2 RAE12 SLP030 P0000 T01890178 403220183 $
KCXY 280356Z AUTO 00000KT 7SM -RA FEW055 SCT075 BKN095 19/18 A2966 RMK AO2 LTG DSNT S RAB55 SLP042 P0001 T01890178 $
KCXY 280256Z AUTO 11003KT 10SM BKN080 OVC095 19/17 A2968 RMK AO2 LTG DSNT S AND SW RAE12 SLP049 P0000 60047 T01890172 50002 $
KCXY 280156Z AUTO 13004KT 10SM -RA FEW028 BKN065 OVC090 18/18 A2971 RMK AO2 LTG DSNT NE AND SE SLP060 P0026 T01830178 $
KCXY 280139Z AUTO VRB05KT 3SM RA BR FEW030 BKN047 OVC090 18/18 A2971 RMK AO2 LTG DSNT E-S PRESFR P0025 T01830178 $
KCXY 280129Z AUTO 29005KT 1 1/2SM +RA BR FEW023 BKN041 OVC090 18/18 A2974 RMK AO2 LTG DSNT E-S P0021 T01830178 $
KCXY 280122Z AUTO 26010KT 2SM +RA BR BKN044 OVC085 18/17 A2976 RMK AO2 LTG DSNT E-S PRESRR P0013 T01830172 $
KCXY 280056Z AUTO 14005KT 8SM VCTS RA FEW041 BKN075 OVC095 19/17 A2971 RMK AO2 LTG DSNT ALQDS TSB2358E13B16E56 SLP059 P0021 T01890172 $
KCXY 280041Z AUTO 16007KT 3SM +TSRA BR SCT045 OVC075 18/17 A2970 RMK AO2 LTG DSNT ALQDS TSB2358E13B16 P0019 T01830172 $
KCXY 280033Z AUTO 00000KT 1 3/4SM +TSRA BR BKN041 OVC070 19/17 A2970 RMK AO2 LTG DSNT ALQDS TSB2358E13B16 P0016 T01940172 $
KCXY 280004Z 28007KT 10SM -TSRA BKN065 OVC080 19/17 A2969 RMK AO2 LTG DSNT ALQDS TSB2358 P0000 T01940167 $
KCXY 272356Z 14010KT 10SM VCTS -RA BKN080 BKN120 19/17 A2967 RMK AO2 PK WND 30028/2258 WSHFT 2254 LTG DSNT ALQDS TSE47 SLP047 P0070 60159 T01940167 10322 20189 51009 $
KCXY 272353Z 13011KT 7SM VCTS -RA BKN080 BKN120 19/17 A2967 RMK AO2 PK WND 30028/2258 WSHFT 2254 LTG DSNT ALQDS TSE47 P0070 $
KCXY 272326Z 08013G16KT 6SM TSRA SCT025 OVC085 20/16 A2970 RMK AO2 PK WND 30028/2258 WSHFT 2254 LTG DSNT ALQDS P0062 T02000161 $
KCXY 272316Z 03009G20KT 2SM R08/4500VP6000FT +TSRA BKN027 OVC055 19/17 A2970 RMK AO2 PK WND 30028/2258 WSHFT 2254 LTG DSNT ALQDS P0059 T01940167 $
KCXY 272310Z 02013G25KT 1SM R08/2600VP6000FT +TSRA BR BKN020 OVC050 19/17 A2971 RMK AO2 PK WND 30028/2258 WSHFT 2254 LTG DSNT ALQDS P0051 T01890167 $
KCXY 272306Z 01015G28KT 3/4SM R08/2600V4500FT +TSRA BR BKN014 BKN028 OVC050 19/17 A2972 RMK AO2 PK WND 30028/2258 LTG DSNT ALQDS P0048 T01890172 $
KCXY 272256Z 29021G40KT 3/4SM R08/3000VP6000FT +TSRA BR BKN016 BKN021 OVC055 19/18 A2974 RMK AO2 PK WND 30040/2250 WSHFT 2236 LTG DSNT ALQDS RAB10 TSB10 SLP070 P0089 T01890183 $
KCXY 272254Z 30023G40KT 3/4SM R08/3000VP6000FT +TSRA BR SCT018 BKN028 OVC050 19/18 A2973 RMK AO2 PK WND 30040/2250 WSHFT 2236 LTG DSNT ALQDS RAB10 TSB10 P0079 $
KCXY 272240Z 30011G16KT 1 1/4SM R08/4000VP6000FT +TSRA SCT018 BKN027 OVC044 22/18 A2969 RMK AO2 LTG DSNT W-NE RAB10 TSB10 P0030 T02170183 $
KCXY 272235Z 24009G20KT 210V280 2 1/2SM R08/6000VP6000FT +TSRA FEW018 BKN025 OVC110 22/19 A2971 RMK AO2 LTG DSNT W-NE RAB10 TSB10 PRESRR P0014 T02220194 $
KCXY 272216Z 19009G15KT 10SM -TSRA FEW045 SCT050 BKN065 28/21 A2963 RMK AO2 LTG DSNT SW-N RAB10 TSB10 P0000 T02830206 $
KCXY 272156Z 18007KT 10SM VCTS BKN050 BKN060 29/20 A2965 RMK AO2 LTG DSNT W AND NW SLP037 T02940200 $
KCXY 272141Z 19004KT 10SM FEW060 29/19 A2966 RMK AO2 LTG DSNT W AND NW T02940194 $
KCXY 272126Z 17005KT 10SM VCTS CLR 30/19 A2966 RMK AO2 LTG DSNT W T03000194 $
KCXY 272056Z 21007KT 10SM CLR 31/19 A2968 RMK AO2 LTG DSNT W SLP047 T03060189 58021 $
KCXY 271956Z 27007KT 10SM FEW055 32/18 A2970 RMK AO2 SLP056 T03170183 $
KCXY 271856Z 21007KT 10SM FEW055 31/18 A2972 RMK AO2 SLP063 T03110183 $
KCXY 271756Z 25007KT 220V290 10SM BKN049 31/18 A2974 RMK AO2 SLP068 T03110183 10311 20222 57015 $
KCXY 271656Z 27007KT 10SM SCT045 30/19 A2975 RMK AO2 SLP074 T03000194 $
KCXY 271556Z 31008KT 260V340 10SM SCT035 29/19 A2977 RMK AO2 SLP079 T02890194 $
KCXY 271456Z 28009G16KT 10SM SCT035 28/19 A2978 RMK AO2 SLP084 T02780194 58011 $
KCXY 271356Z 24007KT 10SM CLR 25/19 A2980 RMK AO2 SLP089 T02500189 $
KCXY 271256Z 24008KT 10SM SCT050 BKN065 23/18 A2981 RMK AO2 SLP092 T02330183 $
KCXY 271156Z 26006KT 10SM FEW047 22/18 A2982 RMK AO2 SLP095 T02220178 10228 20206 53000 $
KCXY 271056Z 00000KT 10SM BKN060 BKN075 22/18 A2981 RMK AO2 SLP091 T02170178 $
KCXY 270956Z AUTO 23003KT 10SM CLR 21/18 A2980 RMK AO2 SLP090 T02110178 $
KCXY 270856Z AUTO 24004KT 10SM CLR 21/18 A2982 RMK AO2 SLP095 T02110178 56008 $
KCXY 270756Z AUTO 00000KT 10SM FEW090 22/18 A2982 RMK AO2 SLP097 T02220178 $
KCXY 270656Z AUTO 19004KT 10SM CLR 23/18 A2983 RMK AO2 SLP099 T02280178 $
KCXY 270556Z AUTO 18003KT 10SM CLR 22/18 A2984 RMK AO2 SLP103 T02220183 10261 20222 56015 $
KCXY 270456Z AUTO 00000KT 10SM SCT065 BKN110 23/18 A2986 RMK AO2 SLP108 T02330178 402940161 $
KCXY 270356Z AUTO 16004KT 10SM FEW100 23/18 A2987 RMK AO2 SLP112 T02330178 $
KCXY 270256Z AUTO 17009KT 10SM SCT100 25/16 A2989 RMK AO2 SLP118 T02500156 58004 $
KCXY 270156Z AUTO 20005KT 10SM CLR 24/15 A2990 RMK AO2 PRESRR SLP124 T02440150 $
KCXY 270056Z AUTO 18005KT 10SM CLR 26/15 A2988 RMK AO2 SLP119 T02560150 $